createdAt,value
2019-03-09T00:00:56.538Z,5.78
2019-03-09T00:03:25.147Z,6.00
2019-03-09T00:05:54.794Z,5.53
2019-03-09T00:08:24.749Z,6.40
2019-03-09T00:10:53.510Z,5.78
2019-03-09T00:13:21.934Z,6.42
2019-03-09T00:15:50.745Z,7.47
2019-03-09T00:18:19.262Z,7.40
2019-03-09T00:20:47.781Z,8.30
2019-03-09T00:23:34.322Z,8.60
2019-03-09T00:29:05.317Z,9.80
2019-03-09T00:34:25.680Z,11.00
2019-03-09T00:36:54.307Z,11.80
2019-03-09T00:39:22.745Z,11.57
2019-03-09T00:41:51.201Z,12.18
2019-03-09T00:44:19.653Z,12.93
2019-03-09T00:46:48.069Z,13.78
2019-03-09T00:49:16.505Z,14.38
2019-03-09T00:51:44.944Z,13.85
2019-03-09T00:54:15.121Z,14.55
2019-03-09T00:56:43.541Z,14.33
2019-03-09T00:59:11.970Z,14.85
2019-03-09T01:01:40.421Z,14.70
2019-03-09T01:04:08.851Z,14.90
2019-03-09T01:06:37.300Z,14.63
2019-03-09T01:09:07.964Z,15.35
2019-03-09T01:11:36.390Z,15.05
2019-03-09T01:14:05.099Z,14.73
2019-03-09T01:16:33.545Z,13.38
2019-03-09T01:19:01.975Z,13.83
2019-03-09T01:21:30.394Z,14.35
2019-03-09T01:23:58.822Z,14.60
2019-03-09T01:26:27.340Z,14.15
2019-03-09T01:28:55.789Z,13.83
2019-03-09T01:31:24.228Z,14.10
2019-03-09T01:33:52.739Z,13.45
2019-03-09T01:36:21.188Z,13.10
2019-03-09T01:38:49.605Z,13.43
2019-03-09T01:41:18.067Z,13.98
2019-03-09T01:43:46.478Z,13.72
2019-03-09T01:46:14.898Z,13.62
2019-03-09T01:48:43.349Z,12.63
2019-03-09T01:51:11.765Z,13.25
2019-03-09T01:53:40.211Z,12.73
2019-03-09T01:56:08.656Z,12.78
2019-03-09T01:58:37.093Z,13.00
2019-03-09T02:01:05.608Z,11.88
2019-03-09T02:03:34.014Z,11.75
2019-03-09T02:06:02.453Z,10.88
2019-03-09T02:08:30.881Z,11.70
2019-03-09T02:10:59.301Z,11.28
2019-03-09T02:13:27.748Z,11.63
2019-03-09T02:15:56.180Z,13.03
2019-03-09T02:18:24.633Z,11.80
2019-03-09T02:20:53.113Z,13.55
2019-03-09T02:23:21.537Z,14.00
2019-03-09T02:25:49.962Z,13.98
2019-03-09T02:28:18.417Z,15.10
2019-03-09T02:30:46.857Z,14.78
2019-03-09T02:33:15.366Z,15.68
2019-03-09T02:35:43.799Z,16.48
2019-03-09T02:38:29.238Z,14.43
2019-03-09T02:40:57.654Z,15.78
2019-03-09T02:43:26.119Z,15.45
2019-03-09T02:45:54.583Z,16.23
2019-03-09T02:48:23.004Z,14.60
2019-03-09T02:50:57.331Z,15.23
2019-03-09T02:53:26.656Z,15.98
2019-03-09T02:55:55.166Z,15.15
2019-03-09T02:58:23.676Z,14.18
2019-03-09T03:01:05.435Z,14.63
2019-03-09T03:03:33.877Z,12.37
2019-03-09T03:06:02.388Z,12.15
2019-03-09T03:08:30.819Z,12.45
2019-03-09T03:10:59.302Z,12.07
2019-03-09T03:13:27.779Z,12.58
2019-03-09T03:15:56.194Z,12.53
2019-03-09T03:18:24.653Z,13.72
2019-03-09T03:20:53.074Z,12.28
2019-03-09T03:23:21.537Z,11.73
2019-03-09T03:25:49.978Z,12.82
2019-03-09T03:28:18.417Z,12.68
2019-03-09T03:30:46.858Z,13.45
2019-03-09T03:33:15.300Z,13.38
2019-03-09T03:35:43.794Z,13.75
2019-03-09T03:38:12.245Z,12.80
2019-03-09T03:40:40.672Z,15.65
2019-03-09T03:43:09.184Z,16.32
2019-03-09T03:45:37.625Z,16.80
2019-03-09T03:48:06.052Z,19.17
2019-03-09T03:50:34.493Z,19.05
2019-03-09T03:53:02.926Z,19.37
2019-03-09T03:55:31.349Z,18.60
2019-03-09T03:57:59.788Z,20.10
2019-03-09T04:00:28.237Z,19.65
2019-03-09T04:02:56.755Z,20.00
2019-03-09T04:05:25.256Z,20.43
2019-03-09T04:07:53.682Z,20.52
2019-03-09T04:10:22.293Z,19.57
2019-03-09T04:12:51.482Z,19.73
2019-03-09T04:15:20.015Z,20.72
2019-03-09T04:17:48.551Z,20.75
2019-03-09T04:20:17.009Z,20.72
2019-03-09T04:22:45.461Z,20.60
2019-03-09T04:25:13.953Z,21.52
2019-03-09T04:27:42.469Z,20.08
2019-03-09T04:30:12.996Z,22.50
2019-03-09T04:32:41.509Z,23.95
2019-03-09T04:35:10.081Z,23.85
2019-03-09T04:37:38.584Z,23.45
2019-03-09T04:40:09.272Z,23.75
2019-03-09T04:42:37.713Z,24.98
2019-03-09T04:45:09.537Z,24.10
2019-03-09T04:47:37.965Z,24.67
2019-03-09T04:50:11.082Z,23.30
2019-03-09T04:52:39.518Z,26.23
2019-03-09T04:55:09.185Z,26.48
2019-03-09T04:57:37.636Z,23.98
2019-03-09T05:00:30.957Z,24.10
2019-03-09T05:02:59.377Z,23.92
2019-03-09T05:05:27.820Z,24.43
2019-03-09T05:07:59.321Z,21.97
2019-03-09T05:10:30.818Z,21.62
2019-03-09T05:13:09.806Z,21.23
2019-03-09T05:15:38.222Z,18.07
2019-03-09T05:18:06.662Z,18.52
2019-03-09T05:20:35.086Z,14.13
2019-03-09T05:23:03.510Z,13.30
2019-03-09T05:25:31.964Z,13.45
2019-03-09T05:28:00.373Z,16.23
2019-03-09T05:30:39.217Z,13.88
2019-03-09T05:33:07.926Z,13.78
2019-03-09T05:35:36.432Z,12.47
2019-03-09T05:38:05.099Z,12.35
2019-03-09T05:40:33.528Z,11.57
2019-03-09T05:43:01.968Z,10.00
2019-03-09T05:45:30.441Z,9.78
2019-03-09T05:47:58.900Z,9.80
2019-03-09T05:50:27.339Z,8.80
2019-03-09T05:53:07.744Z,8.20
2019-03-09T05:55:36.179Z,7.72
2019-03-09T05:58:04.663Z,8.38
2019-03-09T06:00:34.057Z,7.60
2019-03-09T06:03:02.485Z,7.12
2019-03-09T06:05:36.264Z,6.83
2019-03-09T06:08:05.517Z,6.53
2019-03-09T06:10:33.963Z,6.05
2019-03-09T06:13:02.382Z,6.72
2019-03-09T06:15:30.884Z,6.47
2019-03-09T06:17:59.320Z,6.62
2019-03-09T06:20:27.733Z,7.03
2019-03-09T06:22:56.169Z,5.55
2019-03-09T06:25:24.585Z,4.30
2019-03-09T06:27:53.013Z,5.00
2019-03-09T06:30:21.456Z,5.00
2019-03-09T06:33:38.038Z,5.15
2019-03-09T06:36:30.053Z,4.30
2019-03-09T06:39:22.130Z,5.12
2019-03-09T06:41:53.640Z,5.28
2019-03-09T06:44:22.084Z,5.80
2019-03-09T06:46:50.497Z,4.97
2019-03-09T06:49:18.927Z,5.65
2019-03-09T06:51:47.374Z,5.87
2019-03-09T06:54:15.796Z,5.10
2019-03-09T06:56:44.248Z,4.80
2019-03-09T06:59:12.745Z,5.08
2019-03-09T07:01:41.176Z,4.85
2019-03-09T07:04:09.620Z,6.08
2019-03-09T07:06:38.034Z,5.65
2019-03-09T07:09:06.907Z,5.35
2019-03-09T07:11:35.345Z,5.87
2019-03-09T07:14:40.616Z,5.10
2019-03-09T07:17:09.051Z,5.85
2019-03-09T07:19:37.563Z,6.30
2019-03-09T07:22:06.004Z,5.67
2019-03-09T07:24:34.417Z,5.70
2019-03-09T07:27:02.849Z,5.75
2019-03-09T07:29:31.320Z,5.45
2019-03-09T07:31:59.737Z,6.12
2019-03-09T07:34:28.190Z,7.35
2019-03-09T07:36:56.621Z,6.30
2019-03-09T07:39:25.056Z,6.80
2019-03-09T07:41:53.499Z,6.83
2019-03-09T07:44:21.928Z,5.97
2019-03-09T07:46:50.354Z,6.33
2019-03-09T07:49:18.785Z,6.67
2019-03-09T07:51:47.490Z,6.47
2019-03-09T07:54:15.928Z,6.80
2019-03-09T07:56:44.363Z,7.47
2019-03-09T07:59:12.808Z,6.75
2019-03-09T08:01:41.234Z,7.72
2019-03-09T08:04:09.658Z,6.95
2019-03-09T08:06:38.086Z,6.78
2019-03-09T08:09:07.246Z,6.80
2019-03-09T08:11:35.674Z,6.22
2019-03-09T08:14:04.184Z,6.50
2019-03-09T08:16:35.833Z,6.53
2019-03-09T08:19:02.758Z,6.53
2019-03-09T08:21:31.207Z,7.17
2019-03-09T08:23:59.630Z,6.00
2019-03-09T08:26:28.076Z,5.60
2019-03-09T08:28:56.585Z,6.45
2019-03-09T08:31:25.017Z,6.25
2019-03-09T08:33:53.481Z,5.75
2019-03-09T08:36:21.976Z,6.67
2019-03-09T08:38:50.414Z,6.58
2019-03-09T08:41:18.918Z,6.15
2019-03-09T08:43:47.344Z,6.55
2019-03-09T08:46:15.789Z,6.22
2019-03-09T08:48:44.230Z,7.28
2019-03-09T08:51:12.765Z,6.62
2019-03-09T08:53:42.441Z,7.15
2019-03-09T08:56:10.988Z,6.87
2019-03-09T08:58:39.484Z,6.40
2019-03-09T09:01:08.082Z,4.80
2019-03-09T09:03:36.558Z,5.53
2019-03-09T09:06:04.991Z,3.85
2019-03-09T09:08:33.506Z,4.67
2019-03-09T09:11:01.913Z,5.35
2019-03-09T09:13:30.409Z,5.08
2019-03-09T09:15:58.851Z,4.53
2019-03-09T09:18:27.392Z,3.92
2019-03-09T09:20:55.865Z,4.83
2019-03-09T09:23:24.281Z,4.83
2019-03-09T09:25:52.729Z,5.60
2019-03-09T09:28:21.150Z,5.78
2019-03-09T09:30:49.625Z,6.10
2019-03-09T09:33:18.038Z,6.65
2019-03-09T09:35:46.461Z,5.67
2019-03-09T09:38:15.066Z,6.42
2019-03-09T09:40:43.741Z,5.87
2019-03-09T09:43:12.277Z,5.25
2019-03-09T09:45:41.006Z,5.33
2019-03-09T09:48:09.484Z,4.58
2019-03-09T09:50:37.901Z,4.75
2019-03-09T09:53:06.344Z,4.30
2019-03-09T09:55:34.756Z,4.37
2019-03-09T09:58:03.209Z,5.17
2019-03-09T10:00:31.639Z,4.28
2019-03-09T10:03:00.073Z,4.42
2019-03-09T10:05:28.512Z,4.60
2019-03-09T10:07:56.949Z,4.55
2019-03-09T10:10:25.375Z,4.55
2019-03-09T10:12:55.759Z,5.10
2019-03-09T10:15:29.265Z,4.55
2019-03-09T10:17:57.700Z,4.70
2019-03-09T10:20:26.317Z,4.67
2019-03-09T10:23:03.553Z,4.53
2019-03-09T10:25:24.878Z,5.25
2019-03-09T10:27:53.295Z,5.33
2019-03-09T10:30:22.962Z,5.95
2019-03-09T10:32:53.132Z,4.42
2019-03-09T10:35:21.930Z,5.60
2019-03-09T10:37:50.554Z,5.50
2019-03-09T10:40:19.219Z,6.00
2019-03-09T10:42:51.363Z,5.00
2019-03-09T10:45:23.916Z,6.00
2019-03-09T10:47:54.046Z,5.35
2019-03-09T10:50:22.562Z,5.30
2019-03-09T10:52:51.055Z,4.92
2019-03-09T10:55:28.688Z,6.28
2019-03-09T10:57:57.657Z,5.67
2019-03-09T11:00:31.470Z,5.60
2019-03-09T11:03:13.465Z,5.53
2019-03-09T11:05:42.117Z,5.85
2019-03-09T11:08:10.633Z,6.03
2019-03-09T11:10:39.097Z,6.15
2019-03-09T11:13:07.586Z,6.05
2019-03-09T11:15:37.691Z,6.78
2019-03-09T11:18:06.181Z,6.10
2019-03-09T11:20:34.613Z,6.55
2019-03-09T11:23:03.070Z,6.40
2019-03-09T11:25:31.750Z,5.75
2019-03-09T11:28:08.569Z,5.20
2019-03-09T11:30:37.292Z,5.12
2019-03-09T11:33:05.888Z,5.25
2019-03-09T11:35:34.351Z,5.97
2019-03-09T11:38:02.874Z,5.10
2019-03-09T11:40:31.362Z,4.97
2019-03-09T11:43:00.472Z,6.00
2019-03-09T11:45:28.979Z,5.22
2019-03-09T11:47:57.409Z,6.30
2019-03-09T11:50:25.841Z,5.65
2019-03-09T11:52:54.357Z,5.20
2019-03-09T11:55:23.003Z,5.12
2019-03-09T11:57:51.422Z,6.17
2019-03-09T12:00:42.358Z,4.92
2019-03-09T12:03:12.612Z,5.65
2019-03-09T12:05:41.058Z,4.30
2019-03-09T12:08:09.492Z,4.67
2019-03-09T12:10:38.017Z,4.00
2019-03-09T12:13:06.437Z,4.92
2019-03-09T12:15:34.881Z,4.78
2019-03-09T12:18:03.352Z,4.08
2019-03-09T12:20:32.722Z,5.35
2019-03-09T12:23:21.306Z,4.42
2019-03-09T12:25:49.740Z,4.10
2019-03-09T12:28:18.162Z,4.03
2019-03-09T12:30:46.591Z,4.97
2019-03-09T12:33:20.049Z,4.97
2019-03-09T12:35:48.478Z,4.05
2019-03-09T12:38:16.953Z,4.60
2019-03-09T12:40:45.436Z,4.87
2019-03-09T12:43:13.962Z,4.22
2019-03-09T12:45:42.466Z,4.62
2019-03-09T12:48:10.895Z,5.35
2019-03-09T12:50:39.344Z,4.78
2019-03-09T12:53:08.455Z,4.40
2019-03-09T12:55:36.969Z,4.65
2019-03-09T12:58:05.403Z,4.95
2019-03-09T13:00:33.886Z,4.60
2019-03-09T13:03:02.322Z,4.87
2019-03-09T13:05:32.895Z,4.50
2019-03-09T13:08:01.625Z,5.70
2019-03-09T13:10:32.697Z,3.95
2019-03-09T13:13:01.103Z,4.55
2019-03-09T13:15:30.185Z,4.58
2019-03-09T13:17:58.602Z,5.03
2019-03-09T13:20:27.060Z,4.40
2019-03-09T13:22:55.496Z,4.53
2019-03-09T13:25:24.207Z,4.10
2019-03-09T13:27:52.622Z,5.17
2019-03-09T13:30:26.687Z,4.70
2019-03-09T13:32:55.266Z,4.72
2019-03-09T13:35:23.704Z,4.30
2019-03-09T13:37:52.156Z,4.12
2019-03-09T13:40:20.676Z,4.42
2019-03-09T13:42:49.177Z,3.92
2019-03-09T13:45:17.975Z,4.25
2019-03-09T13:47:46.515Z,4.42
2019-03-09T13:50:15.418Z,4.85
2019-03-09T13:52:43.948Z,3.95
2019-03-09T13:55:13.679Z,4.42
2019-03-09T13:57:42.439Z,4.15
2019-03-09T14:00:40.069Z,4.58
2019-03-09T14:03:03.249Z,3.75
2019-03-09T14:05:31.937Z,4.22
2019-03-09T14:08:00.431Z,4.05
2019-03-09T14:10:28.940Z,4.40
2019-03-09T14:12:57.537Z,5.20
2019-03-09T14:15:25.959Z,4.90
2019-03-09T14:17:56.695Z,3.95
2019-03-09T14:20:27.434Z,4.75
2019-03-09T14:22:56.041Z,6.75
2019-03-09T14:25:24.601Z,4.90
2019-03-09T14:27:53.350Z,5.30
2019-03-09T14:30:21.836Z,4.30
2019-03-09T14:32:50.250Z,7.00
2019-03-09T14:35:18.791Z,7.03
2019-03-09T14:37:47.223Z,7.47
2019-03-09T14:40:16.599Z,3.95
2019-03-09T14:42:45.069Z,4.17
2019-03-09T14:45:18.514Z,3.67
2019-03-09T14:47:46.956Z,4.33
2019-03-09T14:50:15.520Z,4.40
2019-03-09T14:52:44.147Z,3.77
2019-03-09T14:55:13.279Z,4.12
2019-03-09T14:57:42.004Z,4.33
2019-03-09T15:00:13.757Z,3.00
2019-03-09T15:02:42.330Z,4.58
2019-03-09T15:05:10.916Z,3.95
2019-03-09T15:07:40.542Z,7.35
2019-03-09T15:10:19.715Z,2.98
2019-03-09T15:12:42.549Z,4.95
2019-03-09T15:15:18.242Z,5.72
2019-03-09T15:17:48.386Z,4.28
2019-03-09T15:20:18.062Z,3.85
2019-03-09T15:22:46.617Z,3.95
2019-03-09T15:25:19.878Z,4.30
2019-03-09T15:27:48.580Z,6.58
2019-03-09T15:30:19.973Z,24.95
2019-03-09T15:32:48.586Z,3.95
2019-03-09T15:35:19.384Z,4.03
2019-03-09T15:37:49.679Z,3.87
2019-03-09T15:40:19.271Z,3.60
2019-03-09T15:42:47.912Z,4.10
2019-03-09T15:45:17.581Z,3.47
2019-03-09T15:47:47.873Z,5.62
2019-03-09T15:50:17.794Z,4.42
2019-03-09T15:52:46.353Z,2.95
2019-03-09T15:55:15.171Z,2.85
2019-03-09T15:57:53.578Z,9.30
2019-03-09T16:00:40.320Z,3.05
2019-03-09T16:02:57.902Z,2.85
2019-03-09T16:05:27.226Z,2.55
2019-03-09T16:07:57.143Z,2.27
2019-03-09T16:10:43.550Z,2.40
2019-03-09T16:13:33.068Z,2.70
2019-03-09T16:15:58.965Z,2.65
2019-03-09T16:18:27.413Z,2.87
2019-03-09T16:20:57.953Z,3.60
2019-03-09T16:23:26.526Z,3.70
2019-03-09T16:25:55.534Z,3.95
2019-03-09T16:28:24.135Z,3.25
2019-03-09T16:30:52.786Z,3.33
2019-03-09T16:33:21.531Z,3.40
2019-03-09T16:35:50.107Z,3.67
2019-03-09T16:38:18.740Z,3.90
2019-03-09T16:40:47.288Z,4.65
2019-03-09T16:43:15.791Z,4.25
2019-03-09T16:45:44.285Z,4.60
2019-03-09T16:48:12.911Z,4.67
2019-03-09T16:50:41.334Z,5.00
2019-03-09T16:53:13.413Z,5.03
2019-03-09T16:55:44.414Z,5.15
2019-03-09T16:58:14.732Z,5.17
2019-03-09T17:00:43.245Z,5.03
2019-03-09T17:03:11.685Z,6.58
2019-03-09T17:05:40.129Z,5.45
2019-03-09T17:08:08.623Z,6.90
2019-03-09T17:10:37.074Z,6.20
2019-03-09T17:13:05.699Z,5.08
2019-03-09T17:15:36.438Z,6.03
2019-03-09T17:18:05.053Z,5.70
2019-03-09T17:20:34.662Z,5.55
2019-03-09T17:23:04.043Z,6.40
2019-03-09T17:25:32.495Z,7.22
2019-03-09T17:28:01.015Z,6.30
2019-03-09T17:30:30.483Z,6.50
2019-03-09T17:32:59.643Z,3.55
2019-03-09T17:35:31.898Z,3.35
2019-03-09T17:37:59.870Z,2.27
2019-03-09T17:40:28.382Z,1.52
2019-03-09T17:42:56.803Z,1.30
2019-03-09T17:45:26.879Z,1.70
2019-03-09T17:47:55.400Z,1.00
2019-03-09T17:50:23.886Z,1.00
2019-03-09T17:52:52.336Z,1.30
2019-03-09T17:55:20.773Z,1.20
2019-03-09T17:57:49.185Z,2.92
2019-03-09T18:00:20.559Z,1.60
2019-03-09T18:02:48.994Z,1.40
2019-03-09T18:05:19.581Z,1.30
2019-03-09T18:07:47.582Z,1.00
2019-03-09T18:10:21.926Z,1.02
2019-03-09T18:12:50.381Z,1.00
2019-03-09T18:15:19.064Z,1.27
2019-03-09T18:17:47.495Z,1.52
2019-03-09T18:20:15.914Z,0.93
2019-03-09T18:22:44.365Z,1.40
2019-03-09T18:25:16.322Z,1.20
2019-03-09T18:27:48.202Z,0.90
2019-03-09T18:30:19.259Z,0.80
2019-03-09T18:32:49.701Z,0.80
2019-03-09T18:35:20.169Z,0.75
2019-03-09T18:37:51.727Z,1.10
2019-03-09T18:40:20.181Z,1.20
2019-03-09T18:42:50.597Z,1.47
2019-03-09T18:45:26.189Z,1.30
2019-03-09T18:47:58.928Z,1.30
2019-03-09T18:50:30.641Z,1.60
2019-03-09T18:52:59.063Z,1.90
2019-03-09T18:55:31.643Z,2.08
2019-03-09T18:58:01.273Z,2.25
2019-03-09T19:00:30.767Z,1.95
2019-03-09T19:03:03.267Z,2.30
2019-03-09T19:05:34.338Z,2.65
2019-03-09T19:08:04.980Z,2.77
2019-03-09T19:10:37.166Z,2.62
2019-03-09T19:13:08.254Z,2.45
2019-03-09T19:15:46.757Z,2.15
2019-03-09T19:18:18.389Z,2.33
2019-03-09T19:20:50.065Z,2.62
2019-03-09T19:23:19.365Z,2.33
2019-03-09T19:25:50.128Z,2.62
2019-03-09T19:28:23.414Z,2.60
2019-03-09T19:30:54.934Z,2.45
2019-03-09T19:33:25.213Z,2.70
2019-03-09T19:35:56.044Z,3.20
2019-03-09T19:38:28.015Z,3.35
2019-03-09T19:40:58.156Z,3.52
2019-03-09T19:43:28.715Z,3.25
2019-03-09T19:45:59.749Z,3.20
2019-03-09T19:48:29.972Z,2.70
2019-03-09T19:51:00.595Z,4.08
2019-03-09T19:53:38.976Z,4.20
2019-03-09T19:56:12.388Z,3.92
2019-03-09T19:58:41.317Z,3.60
2019-03-09T20:01:09.769Z,4.30
2019-03-09T20:03:38.729Z,3.17
2019-03-09T20:06:07.821Z,3.80
2019-03-09T20:08:57.661Z,3.75
2019-03-09T20:11:26.937Z,3.20
2019-03-09T20:13:56.375Z,4.35
2019-03-09T20:16:25.669Z,3.85
2019-03-09T20:18:55.120Z,4.95
2019-03-09T20:21:24.028Z,4.42
2019-03-09T20:23:53.032Z,3.45
2019-03-09T20:26:21.971Z,4.00
2019-03-09T20:28:51.052Z,4.30
2019-03-09T20:31:19.917Z,3.90
2019-03-09T20:33:48.365Z,4.50
2019-03-09T20:36:16.865Z,4.15
2019-03-09T20:38:45.382Z,4.35
2019-03-09T20:41:13.888Z,4.67
2019-03-09T20:43:42.328Z,3.95
2019-03-09T20:46:10.754Z,4.22
2019-03-09T20:48:39.173Z,3.55
2019-03-09T20:51:07.621Z,4.30
2019-03-09T20:53:36.059Z,4.67
2019-03-09T20:56:04.526Z,4.20
2019-03-09T20:58:33.075Z,4.60
2019-03-09T21:01:01.638Z,4.35
2019-03-09T21:03:30.206Z,4.05
2019-03-09T21:05:58.770Z,4.42
2019-03-09T21:08:27.389Z,4.12
2019-03-09T21:11:03.392Z,4.30
2019-03-09T21:13:26.246Z,4.00
2019-03-09T21:15:56.401Z,4.75
2019-03-09T21:18:25.629Z,4.87
2019-03-09T21:20:54.289Z,4.47
2019-03-09T21:23:22.794Z,4.65
2019-03-09T21:25:51.666Z,3.55
2019-03-09T21:28:20.265Z,3.27
2019-03-09T21:30:48.713Z,4.00
2019-03-09T21:33:18.850Z,4.47
2019-03-09T21:35:48.907Z,3.65
2019-03-09T21:38:18.704Z,4.28
2019-03-09T21:40:47.143Z,3.22
2019-03-09T21:43:16.219Z,3.00
2019-03-09T21:45:45.522Z,3.15
2019-03-09T21:48:14.025Z,3.58
2019-03-09T21:50:43.133Z,4.25
2019-03-09T21:53:13.425Z,4.10
2019-03-09T21:55:43.659Z,4.90
2019-03-09T21:58:13.222Z,4.80
2019-03-09T22:00:42.739Z,4.80
2019-03-09T22:03:12.674Z,4.12
2019-03-09T22:05:42.065Z,5.15
2019-03-09T22:08:10.518Z,4.97
2019-03-09T22:10:38.944Z,5.12
2019-03-09T22:13:07.397Z,5.25
2019-03-09T22:15:35.837Z,4.67
2019-03-09T22:18:04.521Z,3.83
2019-03-09T22:20:32.950Z,4.30
2019-03-09T22:23:01.366Z,4.20
2019-03-09T22:25:29.902Z,4.30
2019-03-09T22:27:58.353Z,3.65
2019-03-09T22:30:26.846Z,4.50
2019-03-09T22:32:55.286Z,3.98
2019-03-09T22:35:23.748Z,3.37
2019-03-09T22:37:52.259Z,3.58
2019-03-09T22:40:20.905Z,4.03
2019-03-09T22:42:49.389Z,4.08
2019-03-09T22:45:18.142Z,4.03
2019-03-09T22:47:46.631Z,3.30
2019-03-09T22:50:23.718Z,4.10
2019-03-09T22:52:52.221Z,3.55
2019-03-09T22:55:20.665Z,4.05
2019-03-09T22:57:49.158Z,3.25
2019-03-09T23:00:26.487Z,3.77
2019-03-09T23:02:55.002Z,3.45
2019-03-09T23:05:23.618Z,3.35
2019-03-09T23:07:52.068Z,3.50
2019-03-09T23:10:24.710Z,3.42
2019-03-09T23:12:53.208Z,3.47
2019-03-09T23:15:21.634Z,3.67
2019-03-09T23:17:50.056Z,3.33
2019-03-09T23:20:18.572Z,3.87
2019-03-09T23:22:47.081Z,2.95
2019-03-09T23:25:16.109Z,2.72
2019-03-09T23:27:44.725Z,3.02
2019-03-09T23:30:18.507Z,3.27
2019-03-09T23:32:46.955Z,3.67
2019-03-09T23:35:15.977Z,3.20
2019-03-09T23:37:45.368Z,3.83
2019-03-09T23:40:18.784Z,3.25
2019-03-09T23:42:47.269Z,3.52
2019-03-09T23:45:18.423Z,3.22
2019-03-09T23:47:46.983Z,3.00
2019-03-09T23:50:16.852Z,3.60
2019-03-09T23:52:45.633Z,3.05
2019-03-09T23:55:22.185Z,3.02
2019-03-09T23:57:45.666Z,3.40
